sensor_id;sensor_type;location;lat;lon;timestamp;pressure;altitude;pressure_sealevel;temperature;humidity
62057;BME280;48016;50.284;18.860;2022-10-16T00:01:16;98347.33;;;13.19;78.29
62057;BME280;48016;50.284;18.860;2022-10-16T00:03:44;98351.46;;;13.20;78.37
62057;BME280;48016;50.284;18.860;2022-10-16T00:06:11;98354.27;;;13.19;78.63
62057;BME280;48016;50.284;18.860;2022-10-16T00:08:38;98355.96;;;13.20;78.56
62057;BME280;48016;50.284;18.860;2022-10-16T00:11:14;98349.50;;;13.19;78.49
62057;BME280;48016;50.284;18.860;2022-10-16T00:13:42;98348.91;;;13.19;78.49
62057;BME280;48016;50.284;18.860;2022-10-16T00:16:10;98347.82;;;13.17;78.51
62057;BME280;48016;50.284;18.860;2022-10-16T00:18:38;98349.50;;;13.16;78.45
62057;BME280;48016;50.284;18.860;2022-10-16T00:21:07;98346.70;;;13.17;78.46
62057;BME280;48016;50.284;18.860;2022-10-16T00:23:34;98347.00;;;13.16;78.53
62057;BME280;48016;50.284;18.860;2022-10-16T00:26:04;98348.36;;;13.13;78.66
62057;BME280;48016;50.284;18.860;2022-10-16T00:28:32;98351.83;;;13.12;78.65
62057;BME280;48016;50.284;18.860;2022-10-16T00:30:58;98349.98;;;13.10;78.70
62057;BME280;48016;50.284;18.860;2022-10-16T00:33:25;98349.27;;;13.07;78.91
62057;BME280;48016;50.284;18.860;2022-10-16T00:35:52;98348.18;;;13.05;78.88
62057;BME280;48016;50.284;18.860;2022-10-16T00:38:18;98347.31;;;13.01;78.72
62057;BME280;48016;50.284;18.860;2022-10-16T00:40:44;98347.58;;;12.96;78.83
62057;BME280;48016;50.284;18.860;2022-10-16T00:43:49;98351.20;;;12.92;78.76
62057;BME280;48016;50.284;18.860;2022-10-16T00:46:19;98348.22;;;12.89;78.86
62057;BME280;48016;50.284;18.860;2022-10-16T00:51:23;98353.25;;;12.82;79.16
62057;BME280;48016;50.284;18.860;2022-10-16T00:53:51;98353.25;;;12.78;79.34
62057;BME280;48016;50.284;18.860;2022-10-16T00:56:18;98349.12;;;12.75;79.40
62057;BME280;48016;50.284;18.860;2022-10-16T00:58:45;98349.16;;;12.74;79.51
62057;BME280;48016;50.284;18.860;2022-10-16T01:01:12;98350.88;;;12.69;79.40
62057;BME280;48016;50.284;18.860;2022-10-16T01:03:38;98347.30;;;12.67;79.49
62057;BME280;48016;50.284;18.860;2022-10-16T01:11:57;98354.71;;;12.59;79.93
62057;BME280;48016;50.284;18.860;2022-10-16T01:17:17;98345.42;;;12.54;80.17
62057;BME280;48016;50.284;18.860;2022-10-16T01:22:59;98353.63;;;12.46;80.15
62057;BME280;48016;50.284;18.860;2022-10-16T01:25:49;98356.61;;;12.43;80.31
62057;BME280;48016;50.284;18.860;2022-10-16T01:28:22;98359.80;;;12.41;80.50
62057;BME280;48016;50.284;18.860;2022-10-16T01:30:52;98357.07;;;12.40;80.65
62057;BME280;48016;50.284;18.860;2022-10-16T01:33:28;98353.77;;;12.40;80.79
62057;BME280;48016;50.284;18.860;2022-10-16T01:36:02;98352.35;;;12.37;80.86
62057;BME280;48016;50.284;18.860;2022-10-16T01:38:36;98354.74;;;12.36;80.98
62057;BME280;48016;50.284;18.860;2022-10-16T01:41:09;98351.80;;;12.34;80.87
62057;BME280;48016;50.284;18.860;2022-10-16T01:43:42;98353.80;;;12.33;80.79
62057;BME280;48016;50.284;18.860;2022-10-16T01:46:13;98359.54;;;12.32;80.85
62057;BME280;48016;50.284;18.860;2022-10-16T01:48:40;98358.45;;;12.31;81.05
62057;BME280;48016;50.284;18.860;2022-10-16T01:51:10;98359.27;;;12.31;81.20
62057;BME280;48016;50.284;18.860;2022-10-16T01:53:40;98361.20;;;12.27;81.28
62057;BME280;48016;50.284;18.860;2022-10-16T01:56:11;98364.59;;;12.23;81.43
62057;BME280;48016;50.284;18.860;2022-10-16T01:58:43;98365.98;;;12.19;81.45
62057;BME280;48016;50.284;18.860;2022-10-16T02:01:15;98366.08;;;12.15;81.55
62057;BME280;48016;50.284;18.860;2022-10-16T02:03:45;98366.08;;;12.13;81.36
62057;BME280;48016;50.284;18.860;2022-10-16T02:06:13;98373.60;;;12.13;81.26
62057;BME280;48016;50.284;18.860;2022-10-16T02:08:39;98378.95;;;12.12;81.33
62057;BME280;48016;50.284;18.860;2022-10-16T02:11:10;98380.09;;;12.10;81.49
62057;BME280;48016;50.284;18.860;2022-10-16T02:13:44;98378.23;;;12.06;81.51
62057;BME280;48016;50.284;18.860;2022-10-16T02:16:12;98382.33;;;12.03;81.67
62057;BME280;48016;50.284;18.860;2022-10-16T02:18:41;98383.67;;;12.00;81.79
62057;BME280;48016;50.284;18.860;2022-10-16T02:21:18;98386.36;;;11.97;81.92
62057;BME280;48016;50.284;18.860;2022-10-16T02:27:03;98392.77;;;11.91;81.97
62057;BME280;48016;50.284;18.860;2022-10-16T02:29:32;98388.25;;;11.90;81.98
62057;BME280;48016;50.284;18.860;2022-10-16T02:32:02;98386.63;;;11.89;82.11
62057;BME280;48016;50.284;18.860;2022-10-16T02:34:32;98387.21;;;11.87;82.13
62057;BME280;48016;50.284;18.860;2022-10-16T02:37:01;98386.98;;;11.85;82.32
62057;BME280;48016;50.284;18.860;2022-10-16T02:39:28;98376.04;;;11.82;82.46
62057;BME280;48016;50.284;18.860;2022-10-16T02:41:56;98374.29;;;11.78;82.56
62057;BME280;48016;50.284;18.860;2022-10-16T02:44:22;98379.56;;;11.73;82.69
62057;BME280;48016;50.284;18.860;2022-10-16T02:46:49;98375.68;;;11.68;82.64
62057;BME280;48016;50.284;18.860;2022-10-16T02:49:15;98375.85;;;11.62;82.63
62057;BME280;48016;50.284;18.860;2022-10-16T02:51:42;98380.49;;;11.59;82.62
62057;BME280;48016;50.284;18.860;2022-10-16T02:54:08;98383.73;;;11.56;82.57
62057;BME280;48016;50.284;18.860;2022-10-16T02:56:35;98384.13;;;11.54;82.65
62057;BME280;48016;50.284;18.860;2022-10-16T02:59:01;98386.27;;;11.52;82.76
62057;BME280;48016;50.284;18.860;2022-10-16T03:01:28;98386.52;;;11.49;82.86
62057;BME280;48016;50.284;18.860;2022-10-16T03:03:54;98385.73;;;11.45;83.10
62057;BME280;48016;50.284;18.860;2022-10-16T03:06:21;98390.19;;;11.40;83.36
62057;BME280;48016;50.284;18.860;2022-10-16T03:08:47;98388.64;;;11.37;83.49
62057;BME280;48016;50.284;18.860;2022-10-16T03:11:14;98394.75;;;11.36;83.44
62057;BME280;48016;50.284;18.860;2022-10-16T03:13:40;98403.77;;;11.38;83.34
62057;BME280;48016;50.284;18.860;2022-10-16T03:16:07;98404.32;;;11.41;83.44
62057;BME280;48016;50.284;18.860;2022-10-16T03:18:33;98404.30;;;11.45;83.42
62057;BME280;48016;50.284;18.860;2022-10-16T03:21:00;98408.31;;;11.45;83.46
62057;BME280;48016;50.284;18.860;2022-10-16T03:23:27;98403.39;;;11.46;83.66
62057;BME280;48016;50.284;18.860;2022-10-16T03:25:53;98399.61;;;11.47;83.81
62057;BME280;48016;50.284;18.860;2022-10-16T03:28:20;98406.33;;;11.48;83.85
62057;BME280;48016;50.284;18.860;2022-10-16T03:30:46;98412.09;;;11.51;83.80
62057;BME280;48016;50.284;18.860;2022-10-16T03:33:13;98408.08;;;11.55;83.63
62057;BME280;48016;50.284;18.860;2022-10-16T03:35:40;98413.24;;;11.59;83.61
62057;BME280;48016;50.284;18.860;2022-10-16T03:38:06;98414.19;;;11.62;83.65
62057;BME280;48016;50.284;18.860;2022-10-16T03:40:33;98417.06;;;11.63;83.80
62057;BME280;48016;50.284;18.860;2022-10-16T03:42:59;98422.50;;;11.65;83.89
62057;BME280;48016;50.284;18.860;2022-10-16T03:45:26;98418.08;;;11.68;84.06
62057;BME280;48016;50.284;18.860;2022-10-16T03:47:53;98414.16;;;11.70;84.02
62057;BME280;48016;50.284;18.860;2022-10-16T03:50:19;98415.92;;;11.75;84.16
62057;BME280;48016;50.284;18.860;2022-10-16T03:52:46;98417.52;;;11.80;84.07
62057;BME280;48016;50.284;18.860;2022-10-16T03:55:12;98417.11;;;11.82;83.94
62057;BME280;48016;50.284;18.860;2022-10-16T03:57:39;98418.81;;;11.85;83.93
62057;BME280;48016;50.284;18.860;2022-10-16T04:00:06;98419.85;;;11.90;83.89
62057;BME280;48016;50.284;18.860;2022-10-16T04:02:32;98418.62;;;11.92;83.96
62057;BME280;48016;50.284;18.860;2022-10-16T04:04:59;98419.84;;;11.97;83.99
62057;BME280;48016;50.284;18.860;2022-10-16T04:07:25;98422.46;;;12.01;83.99
62057;BME280;48016;50.284;18.860;2022-10-16T04:09:52;98420.16;;;12.04;84.05
62057;BME280;48016;50.284;18.860;2022-10-16T04:12:19;98424.77;;;12.06;84.06
62057;BME280;48016;50.284;18.860;2022-10-16T04:14:46;98428.09;;;12.08;83.95
62057;BME280;48016;50.284;18.860;2022-10-16T04:17:12;98429.13;;;12.08;83.83
62057;BME280;48016;50.284;18.860;2022-10-16T04:19:39;98432.53;;;12.07;83.59
62057;BME280;48016;50.284;18.860;2022-10-16T04:22:05;98433.39;;;12.06;83.67
62057;BME280;48016;50.284;18.860;2022-10-16T04:24:32;98428.61;;;12.04;83.72
62057;BME280;48016;50.284;18.860;2022-10-16T04:26:58;98422.80;;;12.02;83.64
62057;BME280;48016;50.284;18.860;2022-10-16T04:29:25;98425.68;;;12.03;83.59
62057;BME280;48016;50.284;18.860;2022-10-16T04:31:51;98423.41;;;12.04;83.83
62057;BME280;48016;50.284;18.860;2022-10-16T04:34:18;98419.91;;;12.07;83.78
62057;BME280;48016;50.284;18.860;2022-10-16T04:36:47;98418.46;;;12.11;83.71
62057;BME280;48016;50.284;18.860;2022-10-16T04:39:14;98421.89;;;12.10;83.53
62057;BME280;48016;50.284;18.860;2022-10-16T04:41:40;98424.09;;;12.08;83.55
62057;BME280;48016;50.284;18.860;2022-10-16T04:44:07;98424.23;;;12.06;83.26
62057;BME280;48016;50.284;18.860;2022-10-16T04:46:33;98430.08;;;12.04;83.17
62057;BME280;48016;50.284;18.860;2022-10-16T04:49:00;98432.45;;;12.02;82.91
62057;BME280;48016;50.284;18.860;2022-10-16T04:51:26;98433.67;;;11.98;82.93
62057;BME280;48016;50.284;18.860;2022-10-16T04:53:54;98439.09;;;11.92;82.93
62057;BME280;48016;50.284;18.860;2022-10-16T04:56:21;98435.27;;;11.87;83.09
62057;BME280;48016;50.284;18.860;2022-10-16T04:58:48;98435.55;;;11.85;83.23
62057;BME280;48016;50.284;18.860;2022-10-16T05:01:14;98430.37;;;11.82;83.37
62057;BME280;48016;50.284;18.860;2022-10-16T05:03:41;98431.90;;;11.75;83.44
62057;BME280;48016;50.284;18.860;2022-10-16T05:06:07;98441.51;;;11.71;83.61
62057;BME280;48016;50.284;18.860;2022-10-16T05:08:34;98448.27;;;11.70;83.60
62057;BME280;48016;50.284;18.860;2022-10-16T05:11:00;98448.40;;;11.72;83.48
62057;BME280;48016;50.284;18.860;2022-10-16T05:13:27;98459.11;;;11.72;83.50
62057;BME280;48016;50.284;18.860;2022-10-16T05:15:54;98465.30;;;11.72;83.60
62057;BME280;48016;50.284;18.860;2022-10-16T05:18:20;98469.38;;;11.75;83.60
62057;BME280;48016;50.284;18.860;2022-10-16T05:20:47;98470.65;;;11.77;83.65
62057;BME280;48016;50.284;18.860;2022-10-16T05:23:13;98472.96;;;11.83;83.67
62057;BME280;48016;50.284;18.860;2022-10-16T05:25:40;98475.30;;;11.86;83.61
62057;BME280;48016;50.284;18.860;2022-10-16T05:28:06;98478.06;;;11.87;83.60
62057;BME280;48016;50.284;18.860;2022-10-16T05:30:33;98479.16;;;11.88;83.71
62057;BME280;48016;50.284;18.860;2022-10-16T05:32:59;98477.84;;;11.91;83.62
62057;BME280;48016;50.284;18.860;2022-10-16T05:35:26;98473.46;;;11.93;83.55
62057;BME280;48016;50.284;18.860;2022-10-16T05:37:52;98478.09;;;11.95;83.43
62057;BME280;48016;50.284;18.860;2022-10-16T05:40:19;98479.95;;;11.98;83.39
62057;BME280;48016;50.284;18.860;2022-10-16T05:42:45;98482.52;;;12.02;83.33
62057;BME280;48016;50.284;18.860;2022-10-16T05:45:12;98485.79;;;12.05;83.36
62057;BME280;48016;50.284;18.860;2022-10-16T05:47:39;98483.93;;;12.11;83.40
62057;BME280;48016;50.284;18.860;2022-10-16T05:50:05;98486.78;;;12.14;83.31
62057;BME280;48016;50.284;18.860;2022-10-16T05:52:32;98492.45;;;12.19;83.37
62057;BME280;48016;50.284;18.860;2022-10-16T05:54:59;98494.71;;;12.25;83.31
62057;BME280;48016;50.284;18.860;2022-10-16T05:57:25;98501.42;;;12.31;83.25
62057;BME280;48016;50.284;18.860;2022-10-16T05:59:52;98501.37;;;12.38;82.99
62057;BME280;48016;50.284;18.860;2022-10-16T06:02:18;98497.98;;;12.42;82.93
62057;BME280;48016;50.284;18.860;2022-10-16T06:04:44;98504.40;;;12.49;82.83
62057;BME280;48016;50.284;18.860;2022-10-16T06:07:11;98507.33;;;12.56;82.74
62057;BME280;48016;50.284;18.860;2022-10-16T06:09:37;98512.32;;;12.65;82.69
62057;BME280;48016;50.284;18.860;2022-10-16T06:12:04;98515.04;;;12.78;82.60
62057;BME280;48016;50.284;18.860;2022-10-16T06:14:30;98517.38;;;12.90;82.58
62057;BME280;48016;50.284;18.860;2022-10-16T06:16:57;98520.35;;;13.00;82.43
62057;BME280;48016;50.284;18.860;2022-10-16T06:19:23;98523.74;;;13.09;82.25
62057;BME280;48016;50.284;18.860;2022-10-16T06:21:50;98527.31;;;13.20;82.04
62057;BME280;48016;50.284;18.860;2022-10-16T06:24:16;98531.73;;;13.30;81.76
62057;BME280;48016;50.284;18.860;2022-10-16T06:26:43;98536.41;;;13.38;81.47
62057;BME280;48016;50.284;18.860;2022-10-16T06:29:09;98541.92;;;13.45;81.12
62057;BME280;48016;50.284;18.860;2022-10-16T06:31:36;98545.27;;;13.57;80.91
62057;BME280;48016;50.284;18.860;2022-10-16T06:34:02;98545.84;;;13.73;80.88
62057;BME280;48016;50.284;18.860;2022-10-16T06:36:30;98545.33;;;13.92;80.66
62057;BME280;48016;50.284;18.860;2022-10-16T06:38:57;98545.77;;;14.15;80.45
62057;BME280;48016;50.284;18.860;2022-10-16T06:41:23;98552.49;;;14.41;79.92
62057;BME280;48016;50.284;18.860;2022-10-16T06:43:50;98551.06;;;14.68;79.48
62057;BME280;48016;50.284;18.860;2022-10-16T06:46:21;98556.70;;;14.84;78.66
62057;BME280;48016;50.284;18.860;2022-10-16T06:48:48;98557.75;;;14.95;78.45
62057;BME280;48016;50.284;18.860;2022-10-16T06:51:17;98564.52;;;15.08;77.84
62057;BME280;48016;50.284;18.860;2022-10-16T06:53:46;98563.38;;;15.21;77.28
62057;BME280;48016;50.284;18.860;2022-10-16T06:58:44;98559.85;;;15.40;76.83
62057;BME280;48016;50.284;18.860;2022-10-16T07:01:12;98560.06;;;15.43;76.35
62057;BME280;48016;50.284;18.860;2022-10-16T07:03:43;98559.35;;;15.48;75.92
62057;BME280;48016;50.284;18.860;2022-10-16T07:06:11;98564.92;;;15.59;75.71
62057;BME280;48016;50.284;18.860;2022-10-16T07:08:40;98566.35;;;15.72;75.48
62057;BME280;48016;50.284;18.860;2022-10-16T07:11:16;98565.55;;;15.81;75.45
62057;BME280;48016;50.284;18.860;2022-10-16T07:13:44;98565.06;;;15.78;74.71
62057;BME280;48016;50.284;18.860;2022-10-16T07:16:13;98561.70;;;15.77;74.69
62057;BME280;48016;50.284;18.860;2022-10-16T07:18:41;98564.03;;;15.78;74.21
62057;BME280;48016;50.284;18.860;2022-10-16T07:21:14;98569.33;;;15.86;74.13
62057;BME280;48016;50.284;18.860;2022-10-16T07:23:41;98573.27;;;15.93;73.80
62057;BME280;48016;50.284;18.860;2022-10-16T07:26:09;98580.64;;;15.99;73.52
62057;BME280;48016;50.284;18.860;2022-10-16T07:28:37;98582.27;;;16.09;73.18
62057;BME280;48016;50.284;18.860;2022-10-16T07:31:04;98583.84;;;16.23;72.68
62057;BME280;48016;50.284;18.860;2022-10-16T07:33:32;98578.83;;;16.28;72.40
62057;BME280;48016;50.284;18.860;2022-10-16T07:35:59;98581.04;;;16.33;71.85
62057;BME280;48016;50.284;18.860;2022-10-16T07:38:26;98575.13;;;16.34;71.94
62057;BME280;48016;50.284;18.860;2022-10-16T07:40:57;98574.02;;;16.32;71.39
62057;BME280;48016;50.284;18.860;2022-10-16T07:43:25;98576.06;;;16.27;71.54
62057;BME280;48016;50.284;18.860;2022-10-16T07:45:51;98573.36;;;16.24;71.49
62057;BME280;48016;50.284;18.860;2022-10-16T07:48:19;98579.10;;;16.24;71.49
62057;BME280;48016;50.284;18.860;2022-10-16T07:50:46;98586.09;;;16.28;71.64
62057;BME280;48016;50.284;18.860;2022-10-16T07:53:12;98581.89;;;16.35;71.65
62057;BME280;48016;50.284;18.860;2022-10-16T07:55:39;98585.69;;;16.45;71.59
62057;BME280;48016;50.284;18.860;2022-10-16T07:58:06;98587.50;;;16.55;71.46
62057;BME280;48016;50.284;18.860;2022-10-16T08:00:33;98592.73;;;16.63;71.14
62057;BME280;48016;50.284;18.860;2022-10-16T08:03:01;98590.51;;;16.72;70.92
62057;BME280;48016;50.284;18.860;2022-10-16T08:05:29;98592.71;;;16.79;70.84
62057;BME280;48016;50.284;18.860;2022-10-16T08:07:56;98592.74;;;16.82;70.45
62057;BME280;48016;50.284;18.860;2022-10-16T08:10:24;98594.69;;;16.84;69.81
62057;BME280;48016;50.284;18.860;2022-10-16T08:12:52;98591.04;;;16.84;70.06
62057;BME280;48016;50.284;18.860;2022-10-16T08:15:19;98587.54;;;16.83;69.43
62057;BME280;48016;50.284;18.860;2022-10-16T08:18:02;98587.75;;;16.79;69.46
62057;BME280;48016;50.284;18.860;2022-10-16T08:20:30;98585.92;;;16.81;69.20
62057;BME280;48016;50.284;18.860;2022-10-16T08:22:57;98589.80;;;16.82;69.05
62057;BME280;48016;50.284;18.860;2022-10-16T08:25:25;98589.95;;;16.88;68.52
62057;BME280;48016;50.284;18.860;2022-10-16T08:27:51;98592.55;;;16.95;68.90
62057;BME280;48016;50.284;18.860;2022-10-16T08:30:19;98599.56;;;17.13;68.71
62057;BME280;48016;50.284;18.860;2022-10-16T08:32:46;98603.61;;;17.32;68.58
62057;BME280;48016;50.284;18.860;2022-10-16T08:35:13;98605.84;;;17.46;68.53
62057;BME280;48016;50.284;18.860;2022-10-16T08:37:41;98606.55;;;17.63;68.19
62057;BME280;48016;50.284;18.860;2022-10-16T08:40:17;98606.01;;;17.75;67.94
62057;BME280;48016;50.284;18.860;2022-10-16T08:48:36;98608.99;;;17.95;66.53
62057;BME280;48016;50.284;18.860;2022-10-16T08:51:07;98611.67;;;17.94;66.17
62057;BME280;48016;50.284;18.860;2022-10-16T08:53:48;98609.50;;;17.91;66.44
62057;BME280;48016;50.284;18.860;2022-10-16T08:56:17;98609.42;;;17.89;66.09
62057;BME280;48016;50.284;18.860;2022-10-16T08:58:45;98609.93;;;17.90;66.16
62057;BME280;48016;50.284;18.860;2022-10-16T09:01:14;98606.30;;;17.92;66.05
62057;BME280;48016;50.284;18.860;2022-10-16T09:09:25;98618.71;;;17.96;66.00
62057;BME280;48016;50.284;18.860;2022-10-16T09:12:05;98615.33;;;18.00;65.98
62057;BME280;48016;50.284;18.860;2022-10-16T09:17:48;98616.45;;;18.20;65.76
62057;BME280;48016;50.284;18.860;2022-10-16T09:23:13;98620.84;;;18.40;64.99
62057;BME280;48016;50.284;18.860;2022-10-16T09:25:44;98624.91;;;18.48;64.73
62057;BME280;48016;50.284;18.860;2022-10-16T09:28:11;98632.50;;;18.53;64.62
62057;BME280;48016;50.284;18.860;2022-10-16T09:30:38;98633.42;;;18.58;64.64
62057;BME280;48016;50.284;18.860;2022-10-16T09:33:07;98634.61;;;18.62;64.35
62057;BME280;48016;50.284;18.860;2022-10-16T09:35:38;98636.89;;;18.61;64.19
62057;BME280;48016;50.284;18.860;2022-10-16T09:38:07;98636.70;;;18.59;64.03
62057;BME280;48016;50.284;18.860;2022-10-16T09:40:38;98637.81;;;18.54;63.80
62057;BME280;48016;50.284;18.860;2022-10-16T09:45:41;98641.05;;;18.57;64.08
62057;BME280;48016;50.284;18.860;2022-10-16T09:48:11;98639.11;;;18.65;64.16
62057;BME280;48016;50.284;18.860;2022-10-16T09:50:38;98642.81;;;18.74;64.33
62057;BME280;48016;50.284;18.860;2022-10-16T09:53:12;98641.99;;;18.84;64.17
62057;BME280;48016;50.284;18.860;2022-10-16T09:55:52;98642.09;;;18.91;63.87
62057;BME280;48016;50.284;18.860;2022-10-16T09:58:23;98640.38;;;18.98;63.41
62057;BME280;48016;50.284;18.860;2022-10-16T10:00:52;98635.67;;;19.06;63.17
62057;BME280;48016;50.284;18.860;2022-10-16T10:03:48;98642.47;;;19.12;63.28
62057;BME280;48016;50.284;18.860;2022-10-16T10:06:21;98638.80;;;19.20;63.26
62057;BME280;48016;50.284;18.860;2022-10-16T10:08:58;98637.66;;;19.28;63.09
62057;BME280;48016;50.284;18.860;2022-10-16T10:14:38;98641.13;;;19.36;62.18
62057;BME280;48016;50.284;18.860;2022-10-16T10:33:08;98653.94;;;19.59;62.03
62057;BME280;48016;50.284;18.860;2022-10-16T10:43:46;98649.99;;;19.38;61.43
62057;BME280;48016;50.284;18.860;2022-10-16T10:55:45;98644.98;;;19.22;61.88
62057;BME280;48016;50.284;18.860;2022-10-16T11:05:56;98642.38;;;19.28;62.16
62057;BME280;48016;50.284;18.860;2022-10-16T11:11:04;98640.27;;;19.35;62.48
62057;BME280;48016;50.284;18.860;2022-10-16T11:16:27;98639.42;;;19.42;62.12
62057;BME280;48016;50.284;18.860;2022-10-16T11:22:54;98647.56;;;19.43;62.02
62057;BME280;48016;50.284;18.860;2022-10-16T11:25:22;98653.96;;;19.47;61.97
62057;BME280;48016;50.284;18.860;2022-10-16T11:28:19;98650.98;;;19.48;61.80
62057;BME280;48016;50.284;18.860;2022-10-16T11:30:57;98650.66;;;19.50;61.66
62057;BME280;48016;50.284;18.860;2022-10-16T11:33:30;98648.27;;;19.49;61.67
62057;BME280;48016;50.284;18.860;2022-10-16T11:36:14;98652.82;;;19.52;61.77
62057;BME280;48016;50.284;18.860;2022-10-16T11:39:18;98647.96;;;19.56;61.89
62057;BME280;48016;50.284;18.860;2022-10-16T11:41:48;98651.08;;;19.60;61.93
62057;BME280;48016;50.284;18.860;2022-10-16T11:49:45;98642.71;;;19.68;61.84
62057;BME280;48016;50.284;18.860;2022-10-16T11:52:31;98645.71;;;19.70;61.54
62057;BME280;48016;50.284;18.860;2022-10-16T11:55:14;98648.27;;;19.75;61.74
62057;BME280;48016;50.284;18.860;2022-10-16T11:57:50;98643.68;;;19.71;61.35
62057;BME280;48016;50.284;18.860;2022-10-16T12:00:23;98651.95;;;19.60;61.14
62057;BME280;48016;50.284;18.860;2022-10-16T12:08:17;98667.06;;;19.53;61.65
62057;BME280;48016;50.284;18.860;2022-10-16T12:10:45;98670.66;;;19.54;61.86
62057;BME280;48016;50.284;18.860;2022-10-16T12:13:35;98670.17;;;19.59;62.08
62057;BME280;48016;50.284;18.860;2022-10-16T12:18:44;98668.30;;;19.81;62.06
62057;BME280;48016;50.284;18.860;2022-10-16T12:21:12;98673.24;;;19.90;61.63
62057;BME280;48016;50.284;18.860;2022-10-16T12:23:56;98676.58;;;19.94;61.17
62057;BME280;48016;50.284;18.860;2022-10-16T12:26:29;98677.86;;;19.93;61.29
62057;BME280;48016;50.284;18.860;2022-10-16T12:29:12;98676.56;;;19.89;61.19
62057;BME280;48016;50.284;18.860;2022-10-16T12:31:44;98672.95;;;19.86;61.34
62057;BME280;48016;50.284;18.860;2022-10-16T12:37:18;98666.19;;;19.81;61.29
62057;BME280;48016;50.284;18.860;2022-10-16T12:39:48;98672.33;;;19.79;61.14
62057;BME280;48016;50.284;18.860;2022-10-16T12:44:54;98667.84;;;19.61;60.86
62057;BME280;48016;50.284;18.860;2022-10-16T12:47:37;98673.20;;;19.51;61.21
62057;BME280;48016;50.284;18.860;2022-10-16T12:50:27;98673.88;;;19.44;61.36
62057;BME280;48016;50.284;18.860;2022-10-16T12:52:54;98674.60;;;19.38;61.36
62057;BME280;48016;50.284;18.860;2022-10-16T12:55:22;98674.16;;;19.32;61.48
62057;BME280;48016;50.284;18.860;2022-10-16T12:58:06;98677.61;;;19.24;61.72
62057;BME280;48016;50.284;18.860;2022-10-16T13:21:38;98688.40;;;18.72;63.21
62057;BME280;48016;50.284;18.860;2022-10-16T13:24:24;98691.38;;;18.66;63.29
62057;BME280;48016;50.284;18.860;2022-10-16T13:26:59;98688.03;;;18.60;63.22
62057;BME280;48016;50.284;18.860;2022-10-16T13:29:31;98688.83;;;18.51;63.23
62057;BME280;48016;50.284;18.860;2022-10-16T13:32:00;98689.81;;;18.44;63.31
62057;BME280;48016;50.284;18.860;2022-10-16T13:34:28;98687.65;;;18.38;63.09
62057;BME280;48016;50.284;18.860;2022-10-16T13:36:55;98686.21;;;18.35;63.16
62057;BME280;48016;50.284;18.860;2022-10-16T13:39:27;98682.52;;;18.37;63.28
62057;BME280;48016;50.284;18.860;2022-10-16T13:44:26;98675.23;;;18.38;63.13
62057;BME280;48016;50.284;18.860;2022-10-16T13:47:02;98673.36;;;18.35;63.19
62057;BME280;48016;50.284;18.860;2022-10-16T13:49:29;98671.04;;;18.29;63.11
62057;BME280;48016;50.284;18.860;2022-10-16T13:51:57;98666.91;;;18.23;63.13
62057;BME280;48016;50.284;18.860;2022-10-16T13:54:25;98666.95;;;18.16;63.13
62057;BME280;48016;50.284;18.860;2022-10-16T13:56:53;98669.89;;;18.10;63.24
62057;BME280;48016;50.284;18.860;2022-10-16T13:59:24;98672.58;;;18.06;63.43
62057;BME280;48016;50.284;18.860;2022-10-16T14:01:53;98675.39;;;18.01;63.48
62057;BME280;48016;50.284;18.860;2022-10-16T14:04:21;98677.17;;;17.98;63.59
62057;BME280;48016;50.284;18.860;2022-10-16T14:06:50;98680.35;;;17.98;63.80
62057;BME280;48016;50.284;18.860;2022-10-16T14:09:23;98684.67;;;17.97;63.82
62057;BME280;48016;50.284;18.860;2022-10-16T14:12:03;98692.18;;;17.96;63.93
62057;BME280;48016;50.284;18.860;2022-10-16T14:14:40;98701.98;;;17.95;64.08
62057;BME280;48016;50.284;18.860;2022-10-16T14:17:22;98705.80;;;17.96;64.09
62057;BME280;48016;50.284;18.860;2022-10-16T14:19:51;98711.73;;;17.98;64.15
62057;BME280;48016;50.284;18.860;2022-10-16T14:22:33;98710.58;;;18.00;64.25
62057;BME280;48016;50.284;18.860;2022-10-16T14:25:00;98706.98;;;18.02;64.26
62057;BME280;48016;50.284;18.860;2022-10-16T14:27:35;98702.70;;;18.04;64.38
62057;BME280;48016;50.284;18.860;2022-10-16T14:30:20;98707.11;;;18.05;64.26
62057;BME280;48016;50.284;18.860;2022-10-16T14:38:36;98702.27;;;18.07;64.19
62057;BME280;48016;50.284;18.860;2022-10-16T14:41:04;98704.88;;;18.07;64.38
62057;BME280;48016;50.284;18.860;2022-10-16T14:43:40;98699.02;;;18.09;64.66
62057;BME280;48016;50.284;18.860;2022-10-16T14:46:20;98699.10;;;18.07;64.65
62057;BME280;48016;50.284;18.860;2022-10-16T14:48:49;98705.95;;;18.06;64.84
62057;BME280;48016;50.284;18.860;2022-10-16T14:51:18;98712.75;;;18.05;64.78
62057;BME280;48016;50.284;18.860;2022-10-16T14:53:45;98719.81;;;18.05;64.73
62057;BME280;48016;50.284;18.860;2022-10-16T14:56:18;98725.11;;;18.06;65.04
62057;BME280;48016;50.284;18.860;2022-10-16T14:58:45;98727.01;;;18.06;64.90
62057;BME280;48016;50.284;18.860;2022-10-16T15:01:12;98728.82;;;18.06;64.78
62057;BME280;48016;50.284;18.860;2022-10-16T15:03:39;98720.95;;;18.10;64.92
62057;BME280;48016;50.284;18.860;2022-10-16T15:06:10;98719.24;;;18.11;64.79
62057;BME280;48016;50.284;18.860;2022-10-16T15:08:37;98715.77;;;18.13;64.75
62057;BME280;48016;50.284;18.860;2022-10-16T15:11:04;98715.27;;;18.13;64.68
62057;BME280;48016;50.284;18.860;2022-10-16T15:13:31;98722.05;;;18.10;64.66
62057;BME280;48016;50.284;18.860;2022-10-16T15:15:57;98720.34;;;18.06;64.60
62057;BME280;48016;50.284;18.860;2022-10-16T15:18:24;98726.80;;;18.02;64.57
62057;BME280;48016;50.284;18.860;2022-10-16T15:20:51;98731.50;;;17.97;64.46
62057;BME280;48016;50.284;18.860;2022-10-16T15:23:20;98735.95;;;17.92;64.53
62057;BME280;48016;50.284;18.860;2022-10-16T15:25:52;98741.48;;;17.87;64.55